Latest Weather Observations for Tocal

IDN60801

Issued at 10:35 pm EST Tuesday 29 July 2014 (issued every 30 minutes, with the page automatically refreshed every 10 minutes)

About weather observations | Map of weather stations | Latest weather observations for NSW | Other Formats
Station Details ID: 061250 Name: TOCAL AWS Lat: -32.63 Lon: 151.59 Height: 30.0 m
Data from the previous 72 hours. | See also: Recent months at Tocal
Date/Time
EST
Temp
°C
App
Temp
°C
Dew
Point
Rel
Hum
%
Delta-T
°C
Wind Press
QNH
hPa
Press
MSL
hPa
Rain
since 9 am
mm
Dir
 
Spd
km/h
Gust
km/h
Spd
kts
Gust
kts
29/10:30pm 14.7 11.5 2.9 45 5.3 NNW 9 13 5 7 - - 0.0
29/10:00pm 14.8 11.3 3.6 47 5.1 NNW 11 15 6 8 - - 0.0
29/09:30pm 15.1 11.3 3.8 46 5.2 NNW 13 15 7 8 - - 0.0
29/09:00pm 15.9 12.5 4.1 45 5.5 NNW 11 19 6 10 - - 0.0
29/08:30pm 15.6 12.6 4.2 46 5.3 NNW 9 13 5 7 - - 0.0
29/08:00pm 16.0 13.0 4.2 45 5.5 NW 9 13 5 7 - - 0.0
29/07:30pm 16.4 13.4 3.9 43 5.8 NNW 9 13 5 7 - - 0.0
29/07:00pm 16.3 12.9 4.1 44 5.7 NNW 11 13 6 7 - - 0.0
29/06:30pm 16.4 13.3 3.6 42 5.9 NNW 9 13 5 7 - - 0.0
29/06:00pm 16.7 13.5 3.2 40 6.2 NNW 9 11 5 6 - - 0.0
29/05:30pm 17.8 14.6 3.1 37 6.8 NNW 9 13 5 7 - - 0.0
29/05:00pm 18.2 13.1 3.1 36 7.0 NNW 19 33 10 18 - - 0.0
29/04:30pm 19.4 14.2 2.6 32 7.8 NNW 19 28 10 15 - - 0.0
29/04:00pm 20.1 14.4 3.1 32 8.0 NNW 22 37 12 20 - - 0.0
29/03:30pm 20.1 14.6 2.1 30 8.3 NW 20 32 11 17 - - 0.0
29/03:00pm 20.5 14.3 2.2 29 8.5 NW 24 33 13 18 - - 0.0
29/02:30pm 21.0 16.0 3.7 32 8.3 NW 19 28 10 15 - - 0.0
29/02:00pm 20.6 14.0 2.0 29 8.6 NW 26 39 14 21 - - 0.0
29/01:30pm 21.0 15.1 1.4 27 9.0 NW 22 33 12 18 - - 0.0
29/01:01pm 21.4 14.0 -0.5 23 9.7 NW 28 52 15 28 - - 0.0
29/01:00pm 21.5 14.5 -0.3 23 9.7 NW 26 52 14 28 - - 0.0
29/12:36pm 21.0 13.8 0.6 25 9.2 NW 28 48 15 26 - - 0.0
29/12:33pm 21.0 13.8 0.6 25 9.2 NW 28 48 15 26 - - 0.0
29/12:30pm 21.0 14.3 1.4 27 9.0 NW 26 37 14 20 - - 0.0
29/12:15pm 20.2 13.0 0.9 27 8.7 NW 28 46 15 25 - - 0.0
29/12:12pm 20.2 13.0 0.9 27 8.7 NW 28 46 15 25 - - 0.0
29/12:00pm 20.8 13.8 2.0 28 8.7 NW 28 43 15 23 - - 0.0
29/11:42am 20.8 13.3 1.3 27 8.9 NNW 30 48 16 26 - - 0.0
29/11:30am 20.1 14.2 1.8 29 8.4 WNW 22 48 12 26 - - 0.0
29/11:00am 19.8 13.9 1.6 29 8.3 WNW 22 41 12 22 - - 0.0
29/10:30am 19.6 14.4 2.6 32 7.9 WNW 19 32 10 17 - - 0.0
29/10:00am 19.3 13.7 3.7 35 7.4 NW 22 35 12 19 - - 0.0
29/09:30am 18.0 14.3 4.6 41 6.4 NNW 13 26 7 14 - - 0.0
29/09:00am 15.8 14.7 6.9 55 4.4 NNE 2 4 1 2 - - 0.0
29/08:30am 13.8 11.7 6.0 59 3.7 ENE 6 7 3 4 - - 0.0
29/08:00am 12.0 11.1 6.0 66 2.8 CALM 0 0 0 0 - - 0.0
29/07:30am 7.8 5.3 4.9 82 1.3 W 7 9 4 5 - - 0.0
29/07:00am 9.4 7.8 4.4 71 2.2 SW 2 7 1 4 - - 0.0
29/06:30am 9.5 8.2 4.3 70 2.3 CALM 0 0 0 0 - - 0.0
29/06:00am 8.5 7.3 4.7 77 1.7 CALM 0 0 0 0 - - 0.0
29/05:30am 7.7 6.6 5.0 83 1.2 CALM 0 0 0 0 - - 0.0
29/05:00am 7.5 6.4 5.0 84 1.1 CALM 0 0 0 0 - - 0.0
29/04:30am 7.7 6.6 5.0 83 1.2 CALM 0 0 0 0 - - 0.0
29/04:00am 8.7 7.6 5.1 78 1.6 CALM 0 0 0 0 - - 0.0
29/03:30am 8.9 7.8 4.9 76 1.8 CALM 0 0 0 0 - - 0.0
29/03:00am 10.0 7.1 4.4 68 2.5 S 9 13 5 7 - - 0.0
29/02:30am 12.4 8.7 4.2 57 3.7 NNW 13 19 7 10 - - 0.0
29/02:00am 12.8 9.1 4.5 57 3.8 NNW 13 24 7 13 - - 0.0
29/01:30am 12.9 9.2 4.6 57 3.8 NW 13 20 7 11 - - 0.0
29/01:00am 12.9 8.5 4.6 57 3.8 NW 17 26 9 14 - - 0.0
29/12:30am 11.4 7.9 5.3 66 2.8 NW 13 19 7 10 - - 0.0
29/12:00am 11.5 10.1 5.7 67 2.7 N 2 9 1 5 - - 0.0
 
Date/Time
EST
Temp
°C
App
Temp
°C
Dew
Point
Rel
Hum
%
Delta-T
°C
Wind Press
QNH
hPa
Press
MSL
hPa
Rain
since 9 am
mm
Dir
 
Spd
km/h
Gust
km/h
Spd
kts
Gust
kts
28/11:30pm 12.7 9.9 5.1 60 3.5 WNW 9 15 5 8 - - 0.0
28/11:00pm 12.2 9.8 5.3 62 3.2 WNW 7 19 4 10 - - 0.0
28/10:30pm 11.5 9.1 5.2 65 2.9 NNW 7 15 4 8 - - 0.0
28/10:00pm 12.4 10.2 5.3 62 3.3 NNW 6 9 3 5 - - 0.0
28/09:30pm 12.8 10.0 5.0 59 3.6 NNW 9 13 5 7 - - 0.0
28/09:00pm 14.2 11.4 5.0 54 4.3 NW 9 15 5 8 - - 0.0
28/08:30pm 14.5 11.6 4.9 52 4.5 NW 9 15 5 8 - - 0.0
28/08:00pm 15.3 11.5 4.1 47 5.2 NW 13 19 7 10 - - 0.0
28/07:30pm 15.7 10.7 3.8 45 5.5 NW 19 28 10 15 - - 0.0
28/07:00pm 15.9 11.7 3.8 44 5.6 NW 15 24 8 13 - - 0.0
28/06:30pm 16.1 11.5 3.8 44 5.7 NW 17 32 9 17 - - 0.0
28/06:00pm 16.5 12.2 3.5 42 6.0 NW 15 24 8 13 - - 0.0
28/05:30pm 16.6 12.0 3.6 42 6.0 NW 17 28 9 15 - - 0.0
28/05:00pm 16.9 13.6 4.4 43 5.9 WNW 11 17 6 9 - - 0.0
28/04:30pm 17.9 12.8 4.2 40 6.5 WNW 20 37 11 20 - - 0.0
28/04:00pm 18.6 14.1 4.1 38 6.9 WNW 17 24 9 13 - - 0.0
28/03:30pm 18.7 13.1 3.6 36 7.1 WNW 22 39 12 21 - - 0.0
28/03:00pm 18.5 12.9 3.3 36 7.1 WNW 22 35 12 19 - - 0.0
28/02:30pm 19.2 14.7 4.4 37 7.1 NW 17 30 9 16 - - 0.0
28/02:00pm 19.2 13.2 3.5 35 7.4 NW 24 37 13 20 - - 0.0
28/01:30pm 19.0 13.6 2.5 33 7.6 WNW 20 35 11 19 - - 0.0
28/01:00pm 18.9 14.2 3.3 35 7.3 WNW 17 30 9 16 - - 0.0
28/12:30pm 19.1 12.7 3.3 35 7.4 NNW 26 35 14 19 - - 0.0
28/12:00pm 18.1 12.9 3.3 37 6.9 NW 20 33 11 18 - - 0.0
28/11:30am 17.7 12.6 3.2 38 6.7 WNW 19 32 10 17 - - 0.0
28/11:00am 17.3 12.3 3.5 39 6.4 WNW 19 30 10 16 - - 0.0
28/10:30am 16.1 12.0 4.6 46 5.4 WNW 15 33 8 18 - - 0.0
28/10:00am 15.5 10.7 4.6 48 5.1 WNW 19 32 10 17 - - 0.0
28/09:30am 15.0 11.0 4.7 50 4.8 WNW 15 26 8 14 - - 0.0
28/09:00am 15.0 10.3 6.1 55 4.3 WNW 20 30 11 16 - - 0.0
28/08:30am 14.0 12.0 7.0 62 3.4 NW 7 11 4 6 - - 0.0
28/08:00am 11.8 9.4 5.3 64 3.0 N 7 9 4 5 - - 0.0
28/07:30am 9.5 7.2 4.8 72 2.1 N 6 13 3 7 - - 0.0
28/07:00am 8.4 7.4 5.5 82 1.3 CALM 0 0 0 0 - - 0.0
28/06:30am 8.3 6.9 5.6 83 1.2 SW 2 7 1 4 - - 0.0
28/06:00am 7.1 4.9 5.3 88 0.8 NNE 6 9 3 5 - - 0.0
28/05:30am 8.6 7.6 5.7 82 1.3 CALM 0 0 0 0 - - 0.0
28/05:00am 9.6 8.7 5.9 78 1.7 CALM 0 0 0 0 - - 0.0
28/04:30am 8.5 6.7 5.6 82 1.3 ENE 4 7 2 4 - - 0.0
28/04:00am 9.1 8.1 5.8 80 1.5 CALM 0 0 0 0 - - 0.0
28/03:30am 8.7 7.7 5.8 82 1.3 CALM 0 0 0 0 - - 0.0
28/03:00am 9.3 7.6 6.0 80 1.5 ENE 4 7 2 4 - - 0.0
28/02:30am 9.9 8.2 6.0 77 1.8 E 4 9 2 5 - - 0.0
28/02:00am 10.9 8.8 6.0 72 2.3 S 6 9 3 5 - - 0.0
28/01:30am 9.6 7.5 5.9 78 1.7 NE 6 7 3 4 - - 0.0
28/01:00am 9.5 7.8 6.0 79 1.6 NNE 4 9 2 5 - - 0.0
28/12:30am 9.4 8.5 6.1 80 1.5 CALM 0 0 0 0 - - 0.0
28/12:00am 9.3 8.4 6.0 80 1.5 CALM 0 0 0 0 - - 0.0
 
Date/Time
EST
Temp
°C
App
Temp
°C
Dew
Point
Rel
Hum
%
Delta-T
°C
Wind Press
QNH
hPa
Press
MSL
hPa
Rain
since 9 am
mm
Dir
 
Spd
km/h
Gust
km/h
Spd
kts
Gust
kts
27/11:30pm 9.8 8.5 5.9 77 1.8 E 2 7 1 4 - - 0.0
27/11:00pm 10.8 8.5 5.8 71 2.3 ENE 7 9 4 5 - - 0.0
27/10:30pm 10.7 8.7 6.2 74 2.1 E 6 9 3 5 - - 0.0
27/10:00pm 10.8 8.1 5.8 71 2.3 E 9 9 5 5 - - 0.0
27/09:30pm 10.0 7.5 6.4 78 1.7 E 9 11 5 6 - - 0.0
27/09:00pm 9.8 8.9 6.1 78 1.7 CALM 0 9 0 5 - - 0.0
27/08:30pm 9.0 8.2 6.6 85 1.1 CALM 0 0 0 0 - - 0.0
27/08:00pm 9.6 8.9 6.8 83 1.3 CALM 0 0 0 0 - - 0.0
27/07:30pm 9.9 9.3 7.2 83 1.3 CALM 0 0 0 0 - - 0.0
27/07:00pm 10.3 8.9 7.1 80 1.5 NW 4 7 2 4 - - 0.0
27/06:30pm 11.2 9.3 7.5 78 1.8 NW 7 9 4 5 - - 0.0
27/06:00pm 12.8 10.9 7.5 70 2.6 NW 7 7 4 4 - - 0.0
27/05:30pm 13.9 12.2 7.6 66 3.1 NW 6 7 3 4 - - 0.0
27/05:00pm 15.8 15.1 6.9 55 4.4 CALM 0 2 0 1 - - 0.0
27/04:30pm 17.1 15.0 6.6 50 5.2 WNW 7 11 4 6 - - 0.0
27/04:00pm 17.8 14.7 5.4 44 6.0 NW 11 19 6 10 - - 0.0
27/03:30pm 18.9 16.4 6.5 44 6.2 WNW 9 15 5 8 - - 0.0
27/03:00pm 18.0 14.5 5.4 43 6.1 NW 13 22 7 12 - - 0.0
27/02:30pm 18.1 14.6 5.3 43 6.2 W 13 20 7 11 - - 0.0
27/02:00pm 18.9 15.6 6.5 44 6.2 NW 13 17 7 9 - - 0.0
27/01:30pm 17.9 13.1 5.8 45 5.9 WSW 20 30 11 16 - - 0.0
27/01:00pm 18.2 14.6 6.8 47 5.7 WNW 15 19 8 10 - - 0.0
27/12:30pm 17.4 14.0 5.9 46 5.6 W 13 22 7 12 - - 0.0
27/12:00pm 16.8 13.0 5.9 48 5.3 W 15 19 8 10 - - 0.0
27/11:30am 16.8 13.6 6.9 52 4.9 W 13 20 7 11 - - 0.0
27/11:00am 16.3 13.3 7.5 56 4.4 W 13 22 7 12 - - 0.0
27/10:30am 15.4 12.0 6.1 54 4.5 W 13 20 7 11 - - 0.0
27/10:00am 15.6 12.6 7.8 59 3.9 NW 13 20 7 11 - - 0.0
27/09:30am 14.9 12.1 6.9 58 3.9 WNW 11 15 6 8 - - 0.0
27/09:00am 12.9 11.0 7.6 70 2.6 NE 7 7 4 4 - - 3.2
27/08:30am 11.9 10.2 7.6 75 2.1 NE 6 7 3 4 - - 3.2
27/08:00am 10.6 8.8 7.2 79 1.6 NE 6 7 3 4 - - 3.2
27/07:30am 10.2 8.3 6.8 79 1.6 ENE 6 9 3 5 - - 3.2
27/07:00am 9.5 8.5 5.8 78 1.7 CALM 0 0 0 0 - - 3.2
27/06:30am 9.4 8.4 5.7 78 1.7 CALM 0 0 0 0 - - 3.2
27/06:00am 10.4 9.0 5.6 72 2.2 W 2 6 1 3 - - 3.2
27/05:30am 10.0 7.9 5.9 75 1.9 W 6 9 3 5 - - 3.2
27/05:00am 8.0 6.0 6.2 88 0.8 N 6 11 3 6 - - 3.2
27/04:30am 9.8 7.6 6.4 79 1.6 NNW 7 9 4 5 - - 3.2
27/04:00am 9.5 6.9 6.3 80 1.5 NNW 9 11 5 6 - - 3.2
27/03:30am 10.2 9.1 6.8 79 1.6 N 2 13 1 7 - - 3.2
27/03:00am 8.9 7.1 7.2 89 0.8 N 6 7 3 4 - - 3.2
27/02:30am 9.5 7.8 7.6 88 0.9 NNE 6 7 3 4 - - 3.2
27/02:00am 9.3 7.1 7.8 90 0.7 NNE 9 11 5 6 - - 3.2
27/01:30am 9.2 7.5 8.2 93 0.5 N 7 9 4 5 - - 3.2
27/01:00am 9.2 7.7 8.4 95 0.4 ENE 6 7 3 4 - - 3.2
27/12:30am 9.6 7.5 8.4 92 0.6 ENE 9 11 5 6 - - 3.2
27/12:00am 9.8 8.4 8.8 93 0.5 ENE 6 7 3 4 - - 3.2
 
Date/Time
EST
Temp
°C
App
Temp
°C
Dew
Point
Rel
Hum
%
Delta-T
°C
Wind Press
QNH
hPa
Press
MSL
hPa
Rain
since 9 am
mm
Dir
 
Spd
km/h
Gust
km/h
Spd
kts
Gust
kts
26/11:30pm 9.7 8.2 9.3 97 0.2 ENE 7 9 4 5 - - 3.2
26/11:00pm 9.3 7.4 9.1 99 0.1 NE 9 11 5 6 - - 3.2

Other Formats:

Comma delimited format used in spreadsheet applications
http://www.bom.gov.au/fwo/IDN60801/IDN60801.94775.axf

JavaScript Object Notation format (JSON) in row-major order
http://www.bom.gov.au/fwo/IDN60801/IDN60801.94775.json